createdAt,value
2023-05-05T00:02:19.515Z,70.77
2023-05-05T00:04:46.135Z,70.92
2023-05-05T00:07:12.908Z,70.24
2023-05-05T00:09:39.389Z,70.61
2023-05-05T00:12:06.504Z,70.26
2023-05-05T00:14:33.063Z,70.61
2023-05-05T00:17:01.198Z,70.78
2023-05-05T00:19:27.879Z,71.05
2023-05-05T00:21:54.444Z,70.40
2023-05-05T00:24:21.104Z,71.17
2023-05-05T00:26:47.572Z,71.54
2023-05-05T00:29:14.275Z,71.28
2023-05-05T00:31:40.885Z,71.11
2023-05-05T00:34:07.377Z,70.39
2023-05-05T00:36:35.348Z,71.13
2023-05-05T00:39:01.863Z,70.99
2023-05-05T00:41:28.436Z,70.74
2023-05-05T00:43:55.214Z,70.37
2023-05-05T00:46:28.035Z,71.08
2023-05-05T00:48:56.414Z,71.72
2023-05-05T00:51:24.705Z,70.77
2023-05-05T00:53:51.244Z,70.94
2023-05-05T00:56:20.248Z,70.88
2023-05-05T00:58:48.981Z,71.16
2023-05-05T01:01:16.646Z,71.29
2023-05-05T01:03:43.349Z,71.38
2023-05-05T01:06:32.069Z,71.52
2023-05-05T01:09:18.725Z,70.79
2023-05-05T01:12:00.823Z,71.63
2023-05-05T01:14:39.018Z,71.54
2023-05-05T01:17:37.109Z,71.40
2023-05-05T01:20:45.151Z,71.41
2023-05-05T01:23:30.593Z,71.89
2023-05-05T01:26:24.949Z,72.38
2023-05-05T01:29:18.368Z,71.62
2023-05-05T01:31:52.956Z,71.83
2023-05-05T01:34:24.545Z,72.25
2023-05-05T01:36:58.253Z,72.13
2023-05-05T01:39:30.333Z,72.42
2023-05-05T01:41:59.733Z,72.11
2023-05-05T01:44:28.313Z,72.55
2023-05-05T01:46:58.756Z,72.51
2023-05-05T01:49:27.104Z,72.99
2023-05-05T01:51:55.959Z,72.13
2023-05-05T01:54:24.890Z,72.33
2023-05-05T01:56:57.186Z,71.94
2023-05-05T01:59:26.497Z,72.42
2023-05-05T02:01:55.344Z,72.08
2023-05-05T02:04:23.228Z,72.82
2023-05-05T02:06:51.786Z,73.10
2023-05-05T02:09:22.621Z,72.17
2023-05-05T02:11:49.656Z,73.00
2023-05-05T02:14:19.137Z,72.81
2023-05-05T02:16:46.866Z,72.78
2023-05-05T02:19:15.389Z,73.19
2023-05-05T02:21:42.402Z,73.06
2023-05-05T02:24:09.245Z,72.64
2023-05-05T02:26:39.366Z,72.83
2023-05-05T02:29:12.936Z,73.28
2023-05-05T02:31:49.092Z,73.47
2023-05-05T02:34:24.037Z,72.98
2023-05-05T02:37:03.321Z,73.63
2023-05-05T02:39:37.205Z,74.23
2023-05-05T02:42:05.763Z,74.22
2023-05-05T02:44:33.626Z,74.49
2023-05-05T02:47:04.597Z,74.34
2023-05-05T02:49:31.782Z,74.41
2023-05-05T02:51:58.811Z,74.36
2023-05-05T02:54:26.820Z,73.78
2023-05-05T02:56:54.664Z,74.05
2023-05-05T02:59:21.323Z,73.71
2023-05-05T03:01:59.937Z,73.69
2023-05-05T03:04:35.602Z,73.97
2023-05-05T03:07:12.024Z,73.87
2023-05-05T03:09:57.281Z,74.02
2023-05-05T03:12:31.513Z,73.90
2023-05-05T03:15:00.491Z,74.24
2023-05-05T03:17:30.635Z,74.28
2023-05-05T03:19:57.606Z,74.22
2023-05-05T03:22:24.644Z,74.93
2023-05-05T03:24:51.629Z,74.49
2023-05-05T03:27:18.365Z,74.56
2023-05-05T03:29:44.794Z,74.78
2023-05-05T03:32:11.522Z,73.93
2023-05-05T03:34:38.310Z,73.76
2023-05-05T03:37:05.002Z,73.77
2023-05-05T03:39:31.737Z,73.92
2023-05-05T03:41:58.494Z,73.70
2023-05-05T03:44:25.215Z,74.06
2023-05-05T03:46:51.960Z,74.15
2023-05-05T03:49:18.716Z,74.03
2023-05-05T03:51:45.221Z,73.95
2023-05-05T03:54:11.757Z,73.75
2023-05-05T03:56:38.542Z,73.94
2023-05-05T03:59:05.253Z,74.21
2023-05-05T04:01:31.841Z,73.86
2023-05-05T04:03:58.694Z,73.93
2023-05-05T04:06:25.310Z,73.74
2023-05-05T04:08:52.878Z,73.97
2023-05-05T04:11:19.721Z,73.92
2023-05-05T04:13:46.197Z,73.57
2023-05-05T04:16:12.752Z,73.56
2023-05-05T04:18:39.545Z,73.29
2023-05-05T04:21:08.464Z,72.54
2023-05-05T04:23:35.181Z,72.42
2023-05-05T04:26:02.678Z,72.84
2023-05-05T04:28:29.321Z,72.26
2023-05-05T04:30:55.940Z,72.44
2023-05-05T04:33:22.643Z,72.04
2023-05-05T04:35:49.334Z,71.80
2023-05-05T04:38:16.197Z,71.18
2023-05-05T04:40:42.907Z,71.22
2023-05-05T04:43:09.715Z,70.92
2023-05-05T04:45:36.466Z,69.97
2023-05-05T04:48:03.036Z,70.45
2023-05-05T04:50:29.819Z,70.45
2023-05-05T04:52:56.607Z,70.68
2023-05-05T04:55:23.381Z,69.99
2023-05-05T04:57:50.154Z,70.00
2023-05-05T05:00:17.064Z,69.72
2023-05-05T05:02:43.994Z,70.25
2023-05-05T05:05:10.817Z,69.55
2023-05-05T05:07:37.660Z,69.55
2023-05-05T05:10:04.381Z,69.13
2023-05-05T05:12:33.063Z,68.76
2023-05-05T05:14:59.783Z,69.02
2023-05-05T05:17:26.372Z,68.13
2023-05-05T05:19:53.092Z,67.51
2023-05-05T05:22:19.827Z,67.56
2023-05-05T05:24:46.585Z,67.06
2023-05-05T05:27:13.725Z,66.57
2023-05-05T05:29:40.204Z,66.34
2023-05-05T05:32:07.026Z,64.97
2023-05-05T05:34:33.981Z,64.50
2023-05-05T05:37:00.643Z,63.67
2023-05-05T05:39:27.230Z,63.35
2023-05-05T05:41:53.934Z,63.25
2023-05-05T05:44:20.396Z,63.18
2023-05-05T05:46:46.975Z,63.53
2023-05-05T05:49:13.656Z,62.93
2023-05-05T05:51:40.495Z,61.92
2023-05-05T05:54:07.286Z,62.03
2023-05-05T05:56:34.148Z,60.62
2023-05-05T05:59:00.948Z,61.03
2023-05-05T06:01:27.616Z,60.40
2023-05-05T06:03:54.117Z,59.46
2023-05-05T06:06:21.154Z,60.59
2023-05-05T06:08:48.330Z,58.61
2023-05-05T06:11:14.775Z,59.72
2023-05-05T06:13:41.218Z,60.15
2023-05-05T06:16:08.304Z,60.43
2023-05-05T06:18:34.808Z,60.09
2023-05-05T06:21:01.578Z,60.20
2023-05-05T06:23:28.290Z,60.29
2023-05-05T06:25:54.964Z,58.98
2023-05-05T06:28:21.854Z,59.97
2023-05-05T06:30:48.433Z,59.00
2023-05-05T06:33:15.224Z,58.73
2023-05-05T06:35:41.866Z,59.44
2023-05-05T06:38:08.666Z,58.81
2023-05-05T06:40:35.665Z,58.25
2023-05-05T06:43:02.570Z,57.57
2023-05-05T06:45:29.115Z,57.63
2023-05-05T06:47:55.697Z,57.84
2023-05-05T06:50:22.251Z,57.14
2023-05-05T06:52:48.764Z,56.65
2023-05-05T06:55:15.173Z,57.06
2023-05-05T06:57:41.926Z,57.37
2023-05-05T07:00:09.383Z,56.85
2023-05-05T07:02:36.258Z,57.42
2023-05-05T07:05:03.065Z,57.37
2023-05-05T07:07:29.786Z,56.82
2023-05-05T07:09:56.182Z,57.04
2023-05-05T07:12:23.007Z,57.02
2023-05-05T07:14:49.787Z,56.18
2023-05-05T07:17:16.293Z,56.40
2023-05-05T07:19:42.963Z,56.33
2023-05-05T07:22:09.655Z,56.23
2023-05-05T07:24:36.528Z,55.00
2023-05-05T07:27:03.337Z,54.87
2023-05-05T07:29:31.599Z,54.89
2023-05-05T07:31:58.108Z,55.61
2023-05-05T07:34:24.772Z,54.90
2023-05-05T07:36:51.285Z,55.17
2023-05-05T07:39:17.924Z,54.50
2023-05-05T07:41:44.423Z,55.15
2023-05-05T07:44:10.932Z,55.36
2023-05-05T07:46:37.747Z,54.00
2023-05-05T07:49:04.640Z,53.92
2023-05-05T07:53:58.367Z,53.77
2023-05-05T07:56:25.200Z,53.19
2023-05-05T07:58:51.708Z,53.71
2023-05-05T08:01:18.669Z,54.74
2023-05-05T08:03:45.591Z,53.11
2023-05-05T08:06:15.098Z,53.40
2023-05-05T08:08:42.130Z,52.37
2023-05-05T08:11:08.980Z,52.43
2023-05-05T08:13:35.485Z,52.45
2023-05-05T08:16:02.203Z,53.02
2023-05-05T08:18:28.921Z,50.40
2023-05-05T08:20:55.369Z,50.28
2023-05-05T08:23:22.150Z,48.12
2023-05-05T08:25:49.845Z,51.92
2023-05-05T08:28:16.552Z,49.61
2023-05-05T08:30:43.034Z,50.11
2023-05-05T08:33:09.733Z,50.55
2023-05-05T08:35:36.676Z,49.71
2023-05-05T08:38:03.005Z,48.94
2023-05-05T08:40:33.001Z,48.78
2023-05-05T08:42:59.790Z,48.64
2023-05-05T08:45:28.074Z,48.25
2023-05-05T08:48:03.566Z,49.27
2023-05-05T08:50:31.135Z,48.96
2023-05-05T08:53:03.853Z,47.51
2023-05-05T08:55:34.610Z,46.47
2023-05-05T08:58:02.369Z,47.52
2023-05-05T09:00:31.568Z,46.86
2023-05-05T09:02:59.350Z,46.68
2023-05-05T09:05:27.259Z,46.25
2023-05-05T09:07:54.048Z,46.64
2023-05-05T09:10:20.640Z,45.90
2023-05-05T09:12:47.258Z,46.08
2023-05-05T09:15:15.193Z,45.47
2023-05-05T09:17:42.616Z,44.40
2023-05-05T09:20:11.183Z,43.79
2023-05-05T09:22:39.523Z,43.97
2023-05-05T09:25:08.838Z,43.87
2023-05-05T09:27:37.385Z,43.29
2023-05-05T09:30:06.102Z,43.49
2023-05-05T09:32:46.029Z,43.52
2023-05-05T09:35:12.969Z,43.55
2023-05-05T09:37:39.978Z,41.46
2023-05-05T09:40:07.550Z,41.05
2023-05-05T09:42:36.269Z,43.24
2023-05-05T09:45:03.525Z,42.97
2023-05-05T09:47:37.061Z,42.43
2023-05-05T09:50:03.703Z,42.10
2023-05-05T09:52:30.460Z,41.92
2023-05-05T09:54:57.399Z,40.58
2023-05-05T09:57:27.984Z,41.48
2023-05-05T09:59:56.094Z,42.75
2023-05-05T10:02:31.364Z,40.83
2023-05-05T10:05:19.793Z,41.21
2023-05-05T10:07:47.741Z,39.64
2023-05-05T10:10:16.731Z,41.25
2023-05-05T10:12:45.693Z,41.37
2023-05-05T10:15:12.581Z,40.55
2023-05-05T10:20:19.682Z,38.33
2023-05-05T10:22:57.806Z,39.85
2023-05-05T10:25:35.154Z,39.42
2023-05-05T10:28:06.566Z,38.65
2023-05-05T10:30:40.151Z,39.52
2023-05-05T10:33:30.776Z,39.96
2023-05-05T10:36:02.058Z,38.05
2023-05-05T10:38:32.370Z,40.00
2023-05-05T10:41:00.612Z,39.18
2023-05-05T10:43:28.431Z,39.56
2023-05-05T10:45:55.612Z,39.34
2023-05-05T10:48:35.720Z,39.23
2023-05-05T10:51:31.046Z,38.81
2023-05-05T10:54:38.414Z,39.39
2023-05-05T10:57:09.602Z,38.63
2023-05-05T10:59:36.251Z,38.62
2023-05-05T11:02:26.077Z,37.82
2023-05-05T11:05:17.214Z,37.50
2023-05-05T11:07:45.582Z,39.02
2023-05-05T11:10:14.494Z,38.04
2023-05-05T11:12:56.016Z,36.66
2023-05-05T11:15:28.432Z,37.66
2023-05-05T11:17:56.464Z,38.13
2023-05-05T11:20:35.252Z,38.27
2023-05-05T11:23:05.191Z,39.04
2023-05-05T11:25:52.774Z,38.03
2023-05-05T11:28:21.482Z,36.75
2023-05-05T11:30:58.248Z,37.83
2023-05-05T11:33:38.396Z,37.93
2023-05-05T11:36:08.415Z,35.87
2023-05-05T11:38:56.758Z,35.85
2023-05-05T11:41:32.308Z,36.16
2023-05-05T11:44:16.251Z,36.07
2023-05-05T11:46:51.621Z,36.87
2023-05-05T11:49:31.826Z,37.01
2023-05-05T11:52:06.207Z,37.14
2023-05-05T11:54:34.780Z,38.27
2023-05-05T11:57:02.521Z,37.56
2023-05-05T11:59:28.966Z,38.94
2023-05-05T12:01:55.528Z,39.14
2023-05-05T12:04:22.231Z,37.13
2023-05-05T12:06:48.987Z,37.59
2023-05-05T12:09:16.128Z,37.98
2023-05-05T12:11:58.900Z,37.92
2023-05-05T12:14:26.313Z,38.68
2023-05-05T12:16:56.977Z,38.19
2023-05-05T12:19:24.173Z,37.84
2023-05-05T12:21:51.017Z,37.72
2023-05-05T12:24:17.720Z,38.71
2023-05-05T12:26:44.249Z,36.29
2023-05-05T12:29:10.729Z,37.65
2023-05-05T12:31:38.960Z,37.11
2023-05-05T12:34:06.746Z,37.14
2023-05-05T12:36:34.762Z,37.48
2023-05-05T12:39:01.731Z,36.98
2023-05-05T12:41:28.448Z,37.33
2023-05-05T12:43:56.038Z,36.90
2023-05-05T12:46:23.336Z,35.96
2023-05-05T12:49:03.903Z,37.76
2023-05-05T12:51:32.195Z,36.50
2023-05-05T12:54:08.634Z,36.54
2023-05-05T12:56:39.778Z,37.11
2023-05-05T12:59:10.613Z,36.78
2023-05-05T13:01:49.205Z,37.56
2023-05-05T13:04:17.018Z,36.38
2023-05-05T13:06:45.041Z,36.28
2023-05-05T13:09:29.580Z,37.14
2023-05-05T13:11:57.690Z,36.24
2023-05-05T13:14:24.162Z,37.02
2023-05-05T13:16:50.653Z,36.05
2023-05-05T13:19:17.194Z,35.85
2023-05-05T13:21:43.670Z,36.42
2023-05-05T13:24:21.293Z,35.37
2023-05-05T13:26:52.927Z,35.94
2023-05-05T13:29:19.657Z,35.48
2023-05-05T13:31:46.250Z,35.64
2023-05-05T13:34:12.841Z,36.10
2023-05-05T13:36:39.312Z,35.88
2023-05-05T13:39:05.926Z,36.15
2023-05-05T13:41:32.333Z,36.66
2023-05-05T13:43:58.981Z,37.15
2023-05-05T13:46:25.391Z,36.39
2023-05-05T13:48:56.005Z,36.60
2023-05-05T13:51:23.242Z,37.13
2023-05-05T13:53:49.588Z,37.16
2023-05-05T13:56:16.396Z,37.82
2023-05-05T13:58:43.176Z,36.57
2023-05-05T14:01:10.434Z,36.99
2023-05-05T14:03:37.168Z,37.20
2023-05-05T14:06:03.517Z,36.99
2023-05-05T14:08:29.961Z,36.67
2023-05-05T14:10:56.428Z,36.33
2023-05-05T14:13:23.122Z,36.34
2023-05-05T14:15:49.557Z,37.54
2023-05-05T14:18:16.275Z,36.98
2023-05-05T14:20:42.636Z,37.67
2023-05-05T14:23:09.373Z,38.29
2023-05-05T14:25:35.694Z,37.64
2023-05-05T14:28:02.168Z,37.83
2023-05-05T14:30:29.038Z,37.65
2023-05-05T14:32:55.868Z,37.41
2023-05-05T14:35:22.377Z,38.33
2023-05-05T14:37:48.855Z,37.69
2023-05-05T14:40:15.643Z,37.93
2023-05-05T14:42:42.230Z,38.25
2023-05-05T14:45:09.926Z,37.86
2023-05-05T14:47:36.538Z,37.89
2023-05-05T14:50:03.231Z,38.12
2023-05-05T14:52:29.788Z,37.87
2023-05-05T14:54:56.261Z,37.79
2023-05-05T14:57:22.797Z,37.99
2023-05-05T14:59:49.552Z,38.68
2023-05-05T15:02:16.368Z,38.66
2023-05-05T15:04:42.782Z,39.38
2023-05-05T15:07:09.413Z,39.77
2023-05-05T15:09:36.076Z,40.41
2023-05-05T15:12:02.812Z,40.11
2023-05-05T15:14:29.138Z,39.37
2023-05-05T15:16:55.950Z,40.54
2023-05-05T15:19:22.679Z,39.65
2023-05-05T15:21:49.202Z,40.80
2023-05-05T15:24:15.734Z,40.38
2023-05-05T15:26:42.300Z,39.98
2023-05-05T15:29:08.805Z,39.82
2023-05-05T15:31:35.476Z,40.00
2023-05-05T15:34:02.172Z,40.48
2023-05-05T15:36:28.746Z,40.03
2023-05-05T15:38:55.635Z,39.78
2023-05-05T15:41:22.459Z,40.60
2023-05-05T15:43:48.951Z,40.41
2023-05-05T15:46:15.470Z,40.60
2023-05-05T15:48:41.935Z,40.72
2023-05-05T15:51:08.415Z,40.67
2023-05-05T15:53:35.187Z,40.71
2023-05-05T15:56:01.908Z,41.11
2023-05-05T15:58:28.847Z,41.14
2023-05-05T16:00:55.378Z,41.28
2023-05-05T16:03:22.260Z,41.08
2023-05-05T16:05:51.385Z,40.92
2023-05-05T16:08:18.090Z,41.34
2023-05-05T16:10:44.758Z,40.67
2023-05-05T16:13:11.595Z,41.53
2023-05-05T16:15:38.398Z,42.28
2023-05-05T16:18:04.937Z,42.22
2023-05-05T16:20:31.534Z,42.68
2023-05-05T16:22:58.441Z,42.80
2023-05-05T16:25:24.944Z,43.38
2023-05-05T16:27:51.633Z,43.47
2023-05-05T16:30:18.575Z,43.44
2023-05-05T16:32:45.071Z,43.45
2023-05-05T16:35:11.914Z,43.46
2023-05-05T16:37:39.877Z,43.83
2023-05-05T16:40:06.927Z,44.08
2023-05-05T16:42:33.728Z,43.84
2023-05-05T16:45:00.026Z,43.88
2023-05-05T16:47:26.850Z,44.26
2023-05-05T16:49:53.286Z,43.81
2023-05-05T16:52:20.139Z,44.61
2023-05-05T16:54:46.823Z,44.36
2023-05-05T16:57:13.279Z,44.34
2023-05-05T16:59:39.936Z,44.49
2023-05-05T17:02:06.447Z,45.21
2023-05-05T17:04:33.101Z,45.25
2023-05-05T17:06:59.937Z,44.39
2023-05-05T17:09:26.319Z,44.80
2023-05-05T17:11:53.076Z,45.55
2023-05-05T17:14:19.406Z,45.50
2023-05-05T17:16:46.183Z,45.96
2023-05-05T17:19:12.667Z,45.55
2023-05-05T17:21:39.143Z,46.04
2023-05-05T17:24:06.082Z,46.36
2023-05-05T17:26:32.509Z,46.73
2023-05-05T17:28:59.269Z,47.79
2023-05-05T17:31:26.937Z,48.05
2023-05-05T17:33:53.710Z,48.27
2023-05-05T17:36:20.284Z,49.12
2023-05-05T17:38:46.838Z,49.04
2023-05-05T17:41:13.485Z,49.12
2023-05-05T17:43:40.618Z,49.28
2023-05-05T17:46:07.123Z,49.60
2023-05-05T17:48:33.967Z,49.86
2023-05-05T17:51:00.413Z,50.26
2023-05-05T17:53:27.256Z,50.92
2023-05-05T17:55:53.865Z,50.88
2023-05-05T17:58:20.643Z,50.69
2023-05-05T18:00:47.363Z,51.00
2023-05-05T18:03:13.953Z,50.85
2023-05-05T18:05:40.460Z,51.27
2023-05-05T18:08:07.025Z,51.83
2023-05-05T18:10:33.801Z,52.21
2023-05-05T18:13:00.304Z,52.20
2023-05-05T18:15:26.834Z,52.02
2023-05-05T18:17:53.497Z,52.33
2023-05-05T18:20:19.992Z,52.59
2023-05-05T18:22:46.421Z,52.68
2023-05-05T18:25:13.366Z,52.69
2023-05-05T18:27:40.685Z,52.86
2023-05-05T18:30:08.026Z,52.98
2023-05-05T18:32:34.502Z,52.86
2023-05-05T18:35:01.103Z,53.10
2023-05-05T18:37:27.849Z,53.01
2023-05-05T18:39:56.565Z,54.11
2023-05-05T18:42:23.299Z,53.62
2023-05-05T18:44:49.941Z,53.52
2023-05-05T18:47:16.600Z,53.71
2023-05-05T18:49:43.379Z,54.04
2023-05-05T18:52:09.743Z,53.29
2023-05-05T18:54:37.799Z,53.58
2023-05-05T18:57:04.538Z,53.97
2023-05-05T18:59:30.991Z,54.07
2023-05-05T19:01:57.521Z,54.32
2023-05-05T19:04:30.621Z,54.43
2023-05-05T19:06:58.296Z,54.33
2023-05-05T19:09:25.032Z,54.10
2023-05-05T19:11:53.664Z,54.54
2023-05-05T19:14:20.103Z,54.21
2023-05-05T19:16:46.777Z,55.00
2023-05-05T19:19:13.359Z,54.03
2023-05-05T19:21:40.468Z,53.98
2023-05-05T19:24:08.765Z,54.15
2023-05-05T19:26:35.226Z,55.11
2023-05-05T19:29:01.814Z,55.25
2023-05-05T19:31:28.409Z,55.23
2023-05-05T19:34:02.602Z,55.45
2023-05-05T19:36:31.311Z,55.41
2023-05-05T19:39:00.967Z,56.23
2023-05-05T19:41:28.436Z,56.37
2023-05-05T19:43:55.172Z,56.65
2023-05-05T19:46:21.745Z,55.85
2023-05-05T19:48:48.463Z,55.44
2023-05-05T19:51:14.951Z,56.42
2023-05-05T19:53:41.389Z,55.96
2023-05-05T19:56:08.073Z,56.22
2023-05-05T19:59:01.514Z,55.18
2023-05-05T20:01:29.100Z,56.00
2023-05-05T20:03:56.492Z,55.33
2023-05-05T20:06:23.446Z,56.14
2023-05-05T20:08:50.120Z,55.73
2023-05-05T20:11:17.675Z,55.93
2023-05-05T20:13:44.403Z,56.11
2023-05-05T20:16:11.579Z,56.34
2023-05-05T20:18:38.323Z,55.68
2023-05-05T20:21:04.975Z,56.59
2023-05-05T20:23:32.095Z,56.87
2023-05-05T20:25:59.029Z,55.85
2023-05-05T20:28:25.926Z,56.26
2023-05-05T20:30:52.742Z,56.15
2023-05-05T20:33:19.280Z,56.37
2023-05-05T20:35:45.777Z,56.45
2023-05-05T20:38:12.282Z,56.12
2023-05-05T20:40:39.039Z,56.60
2023-05-05T20:43:05.623Z,56.82
2023-05-05T20:45:34.367Z,56.75
2023-05-05T20:48:01.452Z,56.98
2023-05-05T20:50:29.083Z,56.00
2023-05-05T20:52:55.939Z,56.64
2023-05-05T20:55:22.704Z,57.11
2023-05-05T20:57:49.358Z,57.31
2023-05-05T21:00:16.122Z,57.38
2023-05-05T21:02:42.812Z,57.65
2023-05-05T21:05:09.766Z,57.13
2023-05-05T21:07:36.397Z,57.66
2023-05-05T21:10:04.620Z,57.23
2023-05-05T21:12:33.251Z,58.26
2023-05-05T21:15:00.231Z,57.44
2023-05-05T21:17:27.606Z,57.69
2023-05-05T21:19:55.299Z,57.10
2023-05-05T21:22:22.323Z,57.50
2023-05-05T21:24:50.345Z,57.76
2023-05-05T21:27:16.830Z,58.89
2023-05-05T21:29:43.594Z,57.41
2023-05-05T21:32:11.170Z,57.46
2023-05-05T21:34:39.212Z,57.95
2023-05-05T21:37:06.366Z,57.46
2023-05-05T21:39:32.841Z,57.84
2023-05-05T21:42:00.878Z,57.53
2023-05-05T21:44:27.719Z,57.57
2023-05-05T21:46:55.513Z,57.36
2023-05-05T21:49:22.109Z,57.80
2023-05-05T21:51:48.798Z,57.17
2023-05-05T21:54:15.543Z,57.38
2023-05-05T21:56:42.299Z,57.40
2023-05-05T21:59:09.052Z,57.77
2023-05-05T22:01:36.421Z,57.60
2023-05-05T22:04:03.198Z,57.64
2023-05-05T22:06:29.989Z,57.85
2023-05-05T22:08:56.747Z,57.27
2023-05-05T22:11:23.899Z,57.09
2023-05-05T22:13:50.202Z,57.69
2023-05-05T22:16:16.712Z,57.62
2023-05-05T22:18:43.820Z,56.96
2023-05-05T22:21:10.330Z,56.73
2023-05-05T22:23:36.907Z,57.94
2023-05-05T22:26:03.411Z,57.02
2023-05-05T22:28:30.096Z,57.25
2023-05-05T22:30:58.232Z,57.66
2023-05-05T22:33:24.913Z,57.68
2023-05-05T22:35:51.395Z,57.88
2023-05-05T22:38:18.034Z,58.73
2023-05-05T22:40:44.993Z,59.11
2023-05-05T22:43:13.985Z,58.61
2023-05-05T22:45:43.859Z,59.06
2023-05-05T22:48:10.440Z,59.27
2023-05-05T22:50:37.445Z,60.25
2023-05-05T22:53:04.278Z,59.28
2023-05-05T22:55:30.671Z,59.33
2023-05-05T22:57:57.094Z,59.27
2023-05-05T23:00:24.225Z,59.02
2023-05-05T23:02:50.686Z,58.71
2023-05-05T23:05:17.598Z,60.10
2023-05-05T23:07:44.036Z,59.12
2023-05-05T23:10:10.947Z,60.02
2023-05-05T23:12:37.586Z,60.05
2023-05-05T23:15:05.300Z,60.78
2023-05-05T23:17:31.921Z,60.84
2023-05-05T23:19:58.428Z,60.72
2023-05-05T23:22:24.906Z,61.39
2023-05-05T23:24:51.565Z,62.01
2023-05-05T23:27:18.397Z,63.75
2023-05-05T23:29:44.837Z,63.13
2023-05-05T23:32:11.599Z,63.15
2023-05-05T23:34:38.268Z,63.89
2023-05-05T23:37:06.157Z,63.52
2023-05-05T23:39:36.044Z,63.99
2023-05-05T23:42:02.430Z,64.29
2023-05-05T23:44:29.458Z,66.17
2023-05-05T23:46:55.856Z,66.35
2023-05-05T23:49:22.543Z,68.72
2023-05-05T23:51:50.141Z,69.47
2023-05-05T23:54:16.648Z,72.01
2023-05-05T23:56:43.523Z,71.35
2023-05-05T23:59:10.393Z,72.91
